createdAt,value
2022-12-09T00:01:52.568Z,1.42
2022-12-09T00:04:23.616Z,2.03
2022-12-09T00:06:57.389Z,0.88
2022-12-09T00:09:28.360Z,0.85
2022-12-09T00:11:59.331Z,1.73
2022-12-09T00:14:30.916Z,1.70
2022-12-09T00:17:01.261Z,1.38
2022-12-09T00:19:32.011Z,3.67
2022-12-09T00:22:02.255Z,2.35
2022-12-09T00:24:32.867Z,5.72
2022-12-09T00:27:03.473Z,2.22
2022-12-09T00:29:34.245Z,1.50
2022-12-09T00:32:06.295Z,0.75
2022-12-09T00:34:39.173Z,1.45
2022-12-09T00:37:09.621Z,0.60
2022-12-09T00:39:40.211Z,3.67
2022-12-09T00:42:10.438Z,1.48
2022-12-09T00:44:40.929Z,1.35
2022-12-09T00:47:11.648Z,1.55
2022-12-09T00:49:43.320Z,1.88
2022-12-09T00:52:13.653Z,1.88
2022-12-09T00:54:44.305Z,1.48
2022-12-09T00:57:15.137Z,2.67
2022-12-09T00:59:46.226Z,2.13
2022-12-09T01:02:17.033Z,2.03
2022-12-09T01:04:47.926Z,1.88
2022-12-09T01:07:18.839Z,1.98
2022-12-09T01:09:50.124Z,2.17
2022-12-09T01:12:21.157Z,2.03
2022-12-09T01:14:54.706Z,1.30
2022-12-09T01:17:25.830Z,1.88
2022-12-09T01:19:56.453Z,0.77
2022-12-09T01:22:27.908Z,1.52
2022-12-09T01:24:59.088Z,1.08
2022-12-09T01:27:32.438Z,2.00
2022-12-09T01:30:04.020Z,4.18
2022-12-09T01:32:36.559Z,2.35
2022-12-09T01:35:08.131Z,0.50
2022-12-09T01:37:40.232Z,1.10
2022-12-09T01:40:17.705Z,2.05
2022-12-09T01:42:48.949Z,1.38
2022-12-09T01:45:43.631Z,2.42
2022-12-09T01:48:19.919Z,2.20
2022-12-09T01:50:57.816Z,2.00
2022-12-09T01:53:32.363Z,0.52
2022-12-09T01:56:08.312Z,2.00
2022-12-09T01:58:39.719Z,2.40
2022-12-09T02:01:10.882Z,1.40
2022-12-09T02:03:41.734Z,2.22
2022-12-09T02:06:12.775Z,1.45
2022-12-09T02:08:44.810Z,0.80
2022-12-09T02:11:34.612Z,0.75
2022-12-09T02:14:17.899Z,2.05
2022-12-09T02:17:13.751Z,1.75
2022-12-09T02:19:53.296Z,1.27
2022-12-09T02:22:50.578Z,2.72
2022-12-09T02:26:13.097Z,1.67
2022-12-09T02:29:12.520Z,1.08
2022-12-09T02:32:01.909Z,2.03
2022-12-09T02:34:37.890Z,0.73
2022-12-09T02:37:20.793Z,0.50
2022-12-09T02:40:01.424Z,2.10
2022-12-09T02:42:37.414Z,1.27
2022-12-09T02:45:10.330Z,1.13
2022-12-09T02:47:46.553Z,1.10
2022-12-09T02:50:20.330Z,1.27
2022-12-09T02:52:54.035Z,0.80
2022-12-09T02:55:26.231Z,1.05
2022-12-09T02:58:02.745Z,1.42
2022-12-09T03:00:35.744Z,0.93
2022-12-09T03:03:07.599Z,1.15
2022-12-09T03:05:55.818Z,1.25
2022-12-09T03:09:12.210Z,1.38
2022-12-09T03:11:44.404Z,2.28
2022-12-09T03:14:23.579Z,0.40
2022-12-09T03:17:05.396Z,1.67
2022-12-09T03:19:47.269Z,1.25
2022-12-09T03:22:22.960Z,0.52
2022-12-09T03:25:08.681Z,1.37
2022-12-09T03:28:06.827Z,1.07
2022-12-09T03:30:41.951Z,0.88
2022-12-09T03:33:15.468Z,2.15
2022-12-09T03:35:52.402Z,0.82
2022-12-09T03:41:09.751Z,1.75
2022-12-09T03:43:47.577Z,1.48
2022-12-09T03:46:18.045Z,1.48
2022-12-09T03:48:49.306Z,2.63
2022-12-09T03:51:35.174Z,1.08
2022-12-09T03:54:36.205Z,1.35
2022-12-09T03:57:11.337Z,2.47
2022-12-09T04:00:00.687Z,1.42
2022-12-09T04:02:32.232Z,2.00
2022-12-09T04:05:03.175Z,4.45
2022-12-09T04:07:33.654Z,1.40
2022-12-09T04:10:04.617Z,2.30
2022-12-09T04:12:35.194Z,1.95
2022-12-09T04:15:06.576Z,0.98
2022-12-09T04:17:37.778Z,1.08
2022-12-09T04:20:10.113Z,0.52
2022-12-09T04:22:41.535Z,2.03
2022-12-09T04:25:12.576Z,1.55
2022-12-09T04:27:42.968Z,1.67
2022-12-09T04:30:14.052Z,0.65
2022-12-09T04:32:45.797Z,1.40
2022-12-09T04:35:16.472Z,3.35
2022-12-09T04:37:47.388Z,0.80
2022-12-09T04:40:23.135Z,0.52
2022-12-09T04:42:54.914Z,1.75
2022-12-09T04:45:25.662Z,1.38
2022-12-09T04:47:56.084Z,1.83
2022-12-09T04:50:27.988Z,1.17
2022-12-09T04:52:59.065Z,1.10
2022-12-09T04:55:30.434Z,0.98
2022-12-09T04:58:01.489Z,0.65
2022-12-09T05:00:32.225Z,1.58
2022-12-09T05:03:03.115Z,4.00
2022-12-09T05:05:33.535Z,0.50
2022-12-09T05:08:04.819Z,2.05
2022-12-09T05:10:36.117Z,0.47
2022-12-09T05:13:07.215Z,2.63
2022-12-09T05:15:39.731Z,3.60
2022-12-09T05:18:10.374Z,3.85
2022-12-09T05:20:43.940Z,2.13
2022-12-09T05:23:14.468Z,3.88
2022-12-09T05:25:44.964Z,1.20
2022-12-09T05:28:15.534Z,1.20
2022-12-09T05:30:47.358Z,0.75
2022-12-09T05:33:18.321Z,1.63
2022-12-09T05:35:52.679Z,3.78
2022-12-09T05:38:33.393Z,1.10
2022-12-09T05:41:04.055Z,1.05
2022-12-09T05:43:35.683Z,0.35
2022-12-09T05:46:07.134Z,1.85
2022-12-09T05:48:39.080Z,0.75
2022-12-09T05:51:23.863Z,3.22
2022-12-09T05:53:54.891Z,1.70
2022-12-09T05:56:26.801Z,1.52
2022-12-09T05:58:58.322Z,3.70
2022-12-09T06:01:30.024Z,3.03
2022-12-09T06:04:00.753Z,2.55
2022-12-09T06:06:34.202Z,2.22
2022-12-09T06:09:05.384Z,0.88
2022-12-09T06:11:36.234Z,1.35
2022-12-09T06:14:07.743Z,0.80
2022-12-09T06:16:38.842Z,1.75
2022-12-09T06:19:09.456Z,1.95
2022-12-09T06:21:43.064Z,2.53
2022-12-09T06:24:13.637Z,1.70
2022-12-09T06:26:44.327Z,1.70
2022-12-09T06:29:15.326Z,1.58
2022-12-09T06:31:46.433Z,1.30
2022-12-09T06:34:17.220Z,1.23
2022-12-09T06:36:48.059Z,2.47
2022-12-09T06:39:19.589Z,0.65
2022-12-09T06:41:50.470Z,2.67
2022-12-09T06:44:23.808Z,1.58
2022-12-09T06:46:55.392Z,1.45
2022-12-09T06:49:26.441Z,1.08
2022-12-09T06:51:57.579Z,1.15
2022-12-09T06:54:28.435Z,1.38
2022-12-09T06:56:58.971Z,2.15
2022-12-09T06:59:29.342Z,3.00
2022-12-09T07:02:00.711Z,0.55
2022-12-09T07:04:32.170Z,1.30
2022-12-09T07:07:02.700Z,1.77
2022-12-09T07:09:33.454Z,1.00
2022-12-09T07:12:05.486Z,0.68
2022-12-09T07:14:36.180Z,3.45
2022-12-09T07:17:06.954Z,3.30
2022-12-09T07:19:37.384Z,1.33
2022-12-09T07:22:08.208Z,1.17
2022-12-09T07:24:39.514Z,1.15
2022-12-09T07:27:17.201Z,1.70
2022-12-09T07:29:50.012Z,4.15
2022-12-09T07:32:20.753Z,1.75
2022-12-09T07:34:51.217Z,0.55
2022-12-09T07:37:22.595Z,0.47
2022-12-09T07:39:53.285Z,2.03
2022-12-09T07:42:23.995Z,0.65
2022-12-09T07:44:54.628Z,2.00
2022-12-09T07:47:25.773Z,1.23
2022-12-09T07:50:01.379Z,1.27
2022-12-09T07:52:35.004Z,1.05
2022-12-09T07:55:05.642Z,0.80
2022-12-09T07:57:38.596Z,0.85
2022-12-09T08:00:10.069Z,0.50
2022-12-09T08:02:40.384Z,1.08
2022-12-09T08:05:12.016Z,1.50
2022-12-09T08:07:44.570Z,2.55
2022-12-09T08:10:15.608Z,3.00
2022-12-09T08:12:47.464Z,2.53
2022-12-09T08:15:21.006Z,3.05
2022-12-09T08:17:51.691Z,1.33
2022-12-09T08:20:25.853Z,2.42
2022-12-09T08:22:59.944Z,2.08
2022-12-09T08:25:30.328Z,6.20
2022-12-09T08:28:02.047Z,1.52
2022-12-09T08:30:32.752Z,4.60
2022-12-09T08:33:03.540Z,4.15
2022-12-09T08:35:34.459Z,2.30
2022-12-09T08:38:04.852Z,3.10
2022-12-09T08:40:36.209Z,3.17
2022-12-09T08:43:08.918Z,5.38
2022-12-09T08:45:41.169Z,4.72
2022-12-09T08:48:13.473Z,6.13
2022-12-09T08:50:44.734Z,4.35
2022-12-09T08:53:15.338Z,5.38
2022-12-09T08:55:45.739Z,2.78
2022-12-09T08:58:16.547Z,3.17
2022-12-09T09:00:46.872Z,3.72
2022-12-09T09:03:18.140Z,4.28
2022-12-09T09:05:55.123Z,3.03
2022-12-09T09:08:25.944Z,2.08
2022-12-09T09:10:57.651Z,5.07
2022-12-09T09:13:28.752Z,3.78
2022-12-09T09:15:59.327Z,3.42
2022-12-09T09:18:30.171Z,5.18
2022-12-09T09:21:01.275Z,4.88
2022-12-09T09:23:32.033Z,4.97
2022-12-09T09:26:03.563Z,4.15
2022-12-09T09:28:34.960Z,3.08
2022-12-09T09:31:11.614Z,4.75
2022-12-09T09:36:24.756Z,4.78
2022-12-09T09:38:59.468Z,4.88
2022-12-09T09:41:46.360Z,2.45
2022-12-09T09:44:41.906Z,6.07
2022-12-09T09:47:38.836Z,3.70
2022-12-09T09:50:30.089Z,2.13
2022-12-09T09:53:03.185Z,4.15
2022-12-09T09:55:48.879Z,4.00
2022-12-09T09:58:28.675Z,2.45
2022-12-09T10:01:09.488Z,6.45
2022-12-09T10:04:02.871Z,3.58
2022-12-09T10:06:34.191Z,6.82
2022-12-09T10:09:34.122Z,4.05
2022-12-09T10:12:34.940Z,4.68
2022-12-09T10:15:15.886Z,5.60
2022-12-09T10:17:54.422Z,5.57
2022-12-09T10:20:33.959Z,4.38
2022-12-09T10:23:09.557Z,3.42
2022-12-09T10:25:46.439Z,4.25
2022-12-09T10:28:45.779Z,3.15
2022-12-09T10:31:16.747Z,5.28
2022-12-09T10:33:47.304Z,3.97
2022-12-09T10:36:35.471Z,4.00
2022-12-09T10:39:09.144Z,5.30
2022-12-09T10:42:07.723Z,6.57
2022-12-09T10:44:38.203Z,5.25
2022-12-09T10:47:30.818Z,5.85
2022-12-09T10:50:02.028Z,4.55
2022-12-09T10:52:39.170Z,5.50
2022-12-09T10:57:40.017Z,4.63
2022-12-09T11:00:28.330Z,4.47
2022-12-09T11:03:03.376Z,3.75
2022-12-09T11:05:38.497Z,3.42
2022-12-09T11:08:12.602Z,8.77
2022-12-09T11:10:52.156Z,9.05
2022-12-09T11:13:29.586Z,7.93
2022-12-09T11:18:49.003Z,12.38
2022-12-09T11:21:35.882Z,4.95
2022-12-09T11:24:06.846Z,4.55
2022-12-09T11:26:40.702Z,4.65
2022-12-09T11:29:22.062Z,2.50
2022-12-09T11:31:53.159Z,4.55
2022-12-09T11:34:28.038Z,4.10
2022-12-09T11:37:00.698Z,3.83
2022-12-09T11:39:37.385Z,5.57
2022-12-09T11:42:26.793Z,7.22
2022-12-09T11:45:06.070Z,4.90
2022-12-09T11:48:21.188Z,4.95
2022-12-09T11:50:33.923Z,3.70
2022-12-09T11:53:16.817Z,4.25
2022-12-09T11:55:51.531Z,7.47
2022-12-09T11:58:29.363Z,5.75
2022-12-09T12:01:07.608Z,6.15
2022-12-09T12:04:04.377Z,6.35
2022-12-09T12:06:58.736Z,5.28
2022-12-09T12:09:44.625Z,7.43
2022-12-09T12:12:39.164Z,5.40
2022-12-09T12:15:32.195Z,4.18
2022-12-09T12:18:06.875Z,5.25
2022-12-09T12:21:05.526Z,4.13
2022-12-09T12:24:17.264Z,5.30
2022-12-09T12:27:12.761Z,4.82
2022-12-09T12:29:52.648Z,6.95
2022-12-09T12:32:41.460Z,5.63
2022-12-09T12:35:30.210Z,7.55
2022-12-09T12:38:30.363Z,4.85
2022-12-09T12:41:39.173Z,7.07
2022-12-09T12:44:49.461Z,5.15
2022-12-09T12:47:25.716Z,4.60
2022-12-09T12:49:59.486Z,6.30
2022-12-09T12:52:57.994Z,5.03
2022-12-09T12:55:38.085Z,4.65
2022-12-09T12:58:20.789Z,6.28
2022-12-09T13:00:54.231Z,4.10
2022-12-09T13:03:46.164Z,5.40
2022-12-09T13:06:21.320Z,6.60
2022-12-09T13:09:03.320Z,4.63
2022-12-09T13:11:53.951Z,7.07
2022-12-09T13:14:34.061Z,5.40
2022-12-09T13:17:08.254Z,8.75
2022-12-09T13:19:50.065Z,4.90
2022-12-09T13:22:26.701Z,6.85
2022-12-09T13:25:14.958Z,6.28
2022-12-09T13:27:52.929Z,6.45
2022-12-09T13:30:28.636Z,5.50
2022-12-09T13:32:58.961Z,5.72
2022-12-09T13:35:45.010Z,6.20
2022-12-09T13:38:36.317Z,5.30
2022-12-09T13:41:32.282Z,6.72
2022-12-09T13:44:14.900Z,4.63
2022-12-09T13:46:45.697Z,6.68
2022-12-09T13:49:26.676Z,9.00
2022-12-09T13:51:59.451Z,4.32
2022-12-09T13:54:31.778Z,6.70
2022-12-09T13:57:20.765Z,7.47
2022-12-09T13:59:55.585Z,5.35
2022-12-09T14:02:37.933Z,3.03
2022-12-09T14:05:22.778Z,3.22
2022-12-09T14:08:09.331Z,6.97
2022-12-09T14:10:46.251Z,6.28
2022-12-09T14:13:36.574Z,5.90
2022-12-09T14:16:30.216Z,7.57
2022-12-09T14:19:00.969Z,4.50
2022-12-09T14:21:35.519Z,4.00
2022-12-09T14:24:32.795Z,4.05
2022-12-09T14:27:03.640Z,4.90
2022-12-09T14:29:54.241Z,4.28
2022-12-09T14:32:38.260Z,4.78
2022-12-09T14:35:14.838Z,2.85
2022-12-09T14:37:58.993Z,4.53
2022-12-09T14:40:50.354Z,6.30
2022-12-09T14:43:49.901Z,2.72
2022-12-09T14:46:30.079Z,6.50
2022-12-09T14:49:16.615Z,4.93
2022-12-09T14:52:00.261Z,9.93
2022-12-09T14:54:37.734Z,5.53
2022-12-09T14:57:17.806Z,5.43
2022-12-09T14:59:54.278Z,3.25
2022-12-09T15:02:33.481Z,3.58
2022-12-09T15:05:06.174Z,2.58
2022-12-09T15:07:39.780Z,4.78
2022-12-09T15:10:23.048Z,2.30
2022-12-09T15:12:56.458Z,5.45
2022-12-09T15:15:36.189Z,1.60
2022-12-09T15:18:21.045Z,4.90
2022-12-09T15:20:55.103Z,2.75
2022-12-09T15:23:26.794Z,2.60
2022-12-09T15:26:00.997Z,5.78
2022-12-09T15:28:34.015Z,5.88
2022-12-09T15:31:16.627Z,5.07
2022-12-09T15:33:51.627Z,5.65
2022-12-09T15:36:25.493Z,4.35
2022-12-09T15:39:07.071Z,1.63
2022-12-09T15:41:59.823Z,3.45
2022-12-09T15:44:33.772Z,2.80
2022-12-09T15:47:10.310Z,4.50
2022-12-09T15:50:03.352Z,2.03
2022-12-09T15:52:39.538Z,2.13
2022-12-09T15:55:13.208Z,3.05
2022-12-09T15:57:44.782Z,3.80
2022-12-09T16:00:15.817Z,4.20
2022-12-09T16:02:48.683Z,5.80
2022-12-09T16:05:28.047Z,3.30
2022-12-09T16:08:02.631Z,3.03
2022-12-09T16:10:33.299Z,1.30
2022-12-09T16:13:09.882Z,2.70
2022-12-09T16:15:52.899Z,2.75
2022-12-09T16:18:51.862Z,3.38
2022-12-09T16:21:40.035Z,3.97
2022-12-09T16:24:16.682Z,2.55
2022-12-09T16:26:52.488Z,3.78
2022-12-09T16:29:34.608Z,2.65
2022-12-09T16:32:27.665Z,3.75
2022-12-09T16:35:01.370Z,1.63
2022-12-09T16:37:37.870Z,1.83
2022-12-09T16:40:25.455Z,4.55
2022-12-09T16:43:17.041Z,3.17
2022-12-09T16:45:59.105Z,1.50
2022-12-09T16:48:31.795Z,5.35
2022-12-09T16:51:28.526Z,2.83
2022-12-09T16:54:01.024Z,2.83
2022-12-09T16:56:33.975Z,1.52
2022-12-09T16:59:04.588Z,2.58
2022-12-09T17:01:41.410Z,4.55
2022-12-09T17:04:23.655Z,2.08
2022-12-09T17:06:55.701Z,2.63
2022-12-09T17:09:25.993Z,4.22
2022-12-09T17:11:56.493Z,3.75
2022-12-09T17:14:26.752Z,1.65
2022-12-09T17:16:57.096Z,2.28
2022-12-09T17:19:28.548Z,2.72
2022-12-09T17:21:59.592Z,2.22
2022-12-09T17:24:30.318Z,8.32
2022-12-09T17:27:01.066Z,2.35
2022-12-09T17:29:31.459Z,1.85
2022-12-09T17:32:01.736Z,3.88
2022-12-09T17:34:32.074Z,1.52
2022-12-09T17:37:02.448Z,1.25
2022-12-09T17:39:33.009Z,1.02
2022-12-09T17:42:03.853Z,0.98
2022-12-09T17:44:34.100Z,2.17
2022-12-09T17:47:04.321Z,2.85
2022-12-09T17:49:34.703Z,3.50
2022-12-09T17:52:05.222Z,1.60
2022-12-09T17:54:35.516Z,5.60
2022-12-09T17:57:06.591Z,1.75
2022-12-09T17:59:37.707Z,3.28
2022-12-09T18:02:09.251Z,1.88
2022-12-09T18:04:41.195Z,4.93
2022-12-09T18:07:11.458Z,1.33
2022-12-09T18:09:42.013Z,3.20
2022-12-09T18:12:12.406Z,7.65
2022-12-09T18:14:42.757Z,2.75
2022-12-09T18:17:14.731Z,2.55
2022-12-09T18:19:46.636Z,2.03
2022-12-09T18:22:17.188Z,2.33
2022-12-09T18:24:48.944Z,1.92
2022-12-09T18:27:19.329Z,3.10
2022-12-09T18:29:49.539Z,3.42
2022-12-09T18:32:19.848Z,2.28
2022-12-09T18:34:50.967Z,2.88
2022-12-09T18:37:21.351Z,2.83
2022-12-09T18:39:51.723Z,3.40
2022-12-09T18:42:22.461Z,3.53
2022-12-09T18:44:54.395Z,0.82
2022-12-09T18:47:25.694Z,3.45
2022-12-09T18:49:56.364Z,2.28
2022-12-09T18:52:26.842Z,0.98
2022-12-09T18:54:57.469Z,2.83
2022-12-09T18:57:30.673Z,2.25
2022-12-09T19:00:01.642Z,2.10
2022-12-09T19:02:32.341Z,1.50
2022-12-09T19:05:03.171Z,2.80
2022-12-09T19:07:33.536Z,3.22
2022-12-09T19:10:03.765Z,2.08
2022-12-09T19:12:55.092Z,0.95
2022-12-09T19:15:24.751Z,2.67
2022-12-09T19:17:55.240Z,3.55
2022-12-09T19:20:28.364Z,2.92
2022-12-09T19:22:59.762Z,1.83
2022-12-09T19:25:30.116Z,1.05
2022-12-09T19:28:00.361Z,2.90
2022-12-09T19:30:32.755Z,2.20
2022-12-09T19:33:03.963Z,1.52
2022-12-09T19:35:35.886Z,2.03
2022-12-09T19:38:06.837Z,2.05
2022-12-09T19:40:38.730Z,2.67
2022-12-09T19:43:09.264Z,1.40
2022-12-09T19:45:39.671Z,2.30
2022-12-09T19:48:10.169Z,0.75
2022-12-09T19:50:40.846Z,4.05
2022-12-09T19:53:11.125Z,1.13
2022-12-09T19:55:41.587Z,1.75
2022-12-09T19:58:12.237Z,2.42
2022-12-09T20:00:42.821Z,1.88
2022-12-09T20:03:13.052Z,2.85
2022-12-09T20:05:54.607Z,2.30
2022-12-09T20:08:27.136Z,2.65
2022-12-09T20:10:58.136Z,2.00
2022-12-09T20:13:31.956Z,1.92
2022-12-09T20:16:07.553Z,2.08
2022-12-09T20:18:38.626Z,3.00
2022-12-09T20:21:12.707Z,1.90
2022-12-09T20:23:45.836Z,2.92
2022-12-09T20:26:20.200Z,4.70
2022-12-09T20:28:52.638Z,1.63
2022-12-09T20:31:31.952Z,1.95
2022-12-09T20:34:05.404Z,3.38
2022-12-09T20:36:37.743Z,1.67
2022-12-09T20:39:15.514Z,1.63
2022-12-09T20:41:46.832Z,5.45
2022-12-09T20:44:19.493Z,1.65
2022-12-09T20:46:54.918Z,4.78
2022-12-09T20:49:28.110Z,2.47
2022-12-09T20:51:59.496Z,1.85
2022-12-09T20:54:30.416Z,4.25
2022-12-09T20:57:01.161Z,4.28
2022-12-09T20:59:31.574Z,2.03
2022-12-09T21:02:02.568Z,5.78
2022-12-09T21:04:33.091Z,3.28
2022-12-09T21:07:03.421Z,3.63
2022-12-09T21:09:33.712Z,2.15
2022-12-09T21:12:04.256Z,4.28
2022-12-09T21:14:37.973Z,3.70
2022-12-09T21:17:08.426Z,3.00
2022-12-09T21:19:39.381Z,2.22
2022-12-09T21:22:10.427Z,1.52
2022-12-09T21:24:41.735Z,3.05
2022-12-09T21:27:12.381Z,2.05
2022-12-09T21:29:43.088Z,3.55
2022-12-09T21:32:13.713Z,3.28
2022-12-09T21:34:44.389Z,4.05
2022-12-09T21:37:15.162Z,2.53
2022-12-09T21:39:45.731Z,2.50
2022-12-09T21:42:17.261Z,3.92
2022-12-09T21:44:47.614Z,0.98
2022-12-09T21:47:17.961Z,1.20
2022-12-09T21:49:48.628Z,2.85
2022-12-09T21:52:18.997Z,1.33
2022-12-09T21:54:55.311Z,1.63
2022-12-09T21:57:26.662Z,1.60
2022-12-09T21:59:57.166Z,2.45
2022-12-09T22:02:27.987Z,2.72
2022-12-09T22:04:58.664Z,1.92
2022-12-09T22:07:28.899Z,1.40
2022-12-09T22:09:59.194Z,1.17
2022-12-09T22:12:29.785Z,2.50
2022-12-09T22:15:00.183Z,0.55
2022-12-09T22:17:30.620Z,1.15
2022-12-09T22:20:33.672Z,1.33
2022-12-09T22:22:51.253Z,4.22
2022-12-09T22:25:21.578Z,3.70
2022-12-09T22:27:51.927Z,2.22
2022-12-09T22:30:23.303Z,0.55
2022-12-09T22:32:53.823Z,2.67
2022-12-09T22:35:24.199Z,1.73
2022-12-09T22:37:54.503Z,0.88
2022-12-09T22:40:24.889Z,0.73
2022-12-09T22:42:55.191Z,4.38
2022-12-09T22:45:26.092Z,2.55
2022-12-09T22:48:00.361Z,2.50
2022-12-09T22:50:30.882Z,1.95
2022-12-09T22:53:01.193Z,3.00
2022-12-09T22:55:31.546Z,2.28
2022-12-09T22:58:02.172Z,0.90
2022-12-09T23:00:32.551Z,2.55
2022-12-09T23:03:03.335Z,2.08
2022-12-09T23:05:34.979Z,3.83
2022-12-09T23:08:07.021Z,2.30
2022-12-09T23:10:38.133Z,2.00
2022-12-09T23:13:08.780Z,1.00
2022-12-09T23:15:39.420Z,1.83
2022-12-09T23:18:09.846Z,1.40
2022-12-09T23:20:40.362Z,1.20
2022-12-09T23:23:10.649Z,2.30
2022-12-09T23:25:41.277Z,1.63
2022-12-09T23:28:13.388Z,2.13
2022-12-09T23:30:43.848Z,0.95
2022-12-09T23:33:14.272Z,2.28
2022-12-09T23:35:45.193Z,3.08
2022-12-09T23:38:15.638Z,1.25
2022-12-09T23:40:54.213Z,1.10
2022-12-09T23:43:25.821Z,2.45
2022-12-09T23:45:57.488Z,1.63
2022-12-09T23:48:28.232Z,2.22
2022-12-09T23:50:58.938Z,1.42
2022-12-09T23:53:29.340Z,0.82
2022-12-09T23:56:02.155Z,1.75
2022-12-09T23:58:32.820Z,3.08
